createdAt,value
2023-02-13T11:44:06.728Z,49.60
2023-02-13T11:46:56.436Z,49.70
2023-02-13T11:49:28.155Z,49.70
2023-02-13T11:52:02.899Z,50.10
2023-02-13T11:54:42.778Z,50.00
2023-02-13T11:57:40.852Z,50.20
2023-02-13T12:00:32.275Z,50.10
2023-02-13T12:03:01.593Z,50.40
2023-02-13T12:05:30.780Z,50.60
2023-02-13T12:08:03.217Z,50.70
2023-02-13T12:10:37.563Z,50.90
2023-02-13T12:13:25.450Z,51.00
2023-02-13T12:16:02.229Z,51.10
2023-02-13T12:18:36.856Z,51.20
2023-02-13T12:21:08.860Z,51.30
2023-02-13T12:23:54.086Z,51.40
2023-02-13T12:26:40.020Z,51.50
2023-02-13T12:29:20.944Z,51.70
2023-02-13T12:32:03.229Z,51.70
2023-02-13T12:35:10.780Z,51.80
2023-02-13T12:38:03.339Z,52.10
2023-02-13T12:41:01.476Z,52.30
2023-02-13T12:43:42.636Z,52.30
2023-02-13T12:46:45.646Z,52.40
2023-02-13T12:49:29.886Z,53.00
2023-02-13T12:51:59.223Z,53.50
2023-02-13T12:54:42.103Z,53.80
2023-02-13T12:57:38.035Z,54.90
2023-02-13T13:00:28.206Z,55.10
2023-02-13T13:03:35.949Z,55.60
2023-02-13T13:06:12.429Z,57.80
2023-02-13T13:08:51.457Z,56.80
2023-02-13T13:11:41.968Z,56.90
2023-02-13T13:14:28.954Z,58.70
2023-02-13T13:17:06.930Z,58.70
2023-02-13T13:19:54.122Z,57.70
2023-02-13T13:22:47.720Z,57.70
2023-02-13T13:25:52.183Z,58.80
2023-02-13T13:28:35.700Z,58.10
2023-02-13T13:31:05.474Z,58.20
2023-02-13T13:33:36.204Z,58.70
2023-02-13T13:36:41.096Z,58.90
2023-02-13T13:39:35.598Z,59.20
2023-02-13T13:42:15.906Z,60.30
2023-02-13T13:45:02.538Z,59.60
2023-02-13T13:47:56.099Z,59.60
2023-02-13T13:50:28.897Z,61.40
2023-02-13T13:53:42.925Z,60.30
2023-02-13T13:56:12.237Z,61.30
2023-02-13T13:58:50.641Z,60.40
2023-02-13T14:01:24.234Z,60.70
2023-02-13T14:04:00.534Z,60.50
2023-02-13T14:06:47.732Z,60.50
2023-02-13T14:09:44.115Z,62.20
2023-02-13T14:12:39.028Z,62.70
2023-02-13T14:15:27.828Z,63.70
2023-02-13T14:17:57.869Z,62.00
2023-02-13T14:21:01.359Z,62.20
2023-02-13T14:23:51.927Z,64.80
2023-02-13T14:26:40.602Z,62.80
2023-02-13T14:29:24.562Z,62.90
2023-02-13T14:32:03.087Z,63.70
2023-02-13T14:34:35.093Z,63.20
2023-02-13T14:37:18.326Z,63.10
2023-02-13T14:40:23.094Z,63.30
2023-02-13T14:43:16.125Z,64.90
2023-02-13T14:46:20.420Z,64.00
2023-02-13T14:49:07.921Z,65.00
2023-02-13T14:52:16.375Z,64.80
2023-02-13T14:54:57.129Z,64.90
2023-02-13T14:57:42.931Z,64.00
2023-02-13T15:00:50.443Z,64.10
2023-02-13T15:03:28.967Z,66.10
2023-02-13T15:06:02.647Z,64.70
2023-02-13T15:08:39.700Z,64.40
2023-02-13T15:11:28.426Z,64.60
2023-02-13T15:13:57.316Z,64.50
2023-02-13T15:16:27.478Z,64.60
2023-02-13T15:18:57.182Z,64.40
2023-02-13T15:21:34.061Z,64.50
2023-02-13T15:24:06.362Z,64.80
2023-02-13T15:26:36.241Z,65.00
2023-02-13T15:29:11.396Z,65.10
2023-02-13T15:31:43.378Z,65.20
2023-02-13T15:34:53.431Z,65.30
2023-02-13T15:37:24.915Z,66.70
2023-02-13T15:39:59.321Z,65.50
2023-02-13T15:42:28.272Z,65.20
2023-02-13T15:44:59.767Z,65.10
2023-02-13T15:47:34.843Z,64.80
2023-02-13T15:50:03.864Z,64.90
2023-02-13T15:52:37.980Z,64.80
2023-02-13T15:55:07.480Z,64.80
2023-02-13T15:57:36.730Z,64.80
2023-02-13T16:00:06.732Z,64.90
2023-02-13T16:02:49.193Z,65.00
2023-02-13T16:05:29.384Z,65.40
2023-02-13T16:08:33.852Z,65.10
2023-02-13T16:11:29.920Z,65.90
2023-02-13T16:14:05.176Z,65.80
2023-02-13T16:17:03.609Z,65.30
2023-02-13T16:19:38.637Z,65.30
2023-02-13T16:22:30.762Z,65.60
2023-02-13T16:25:18.124Z,67.00
2023-02-13T16:27:51.075Z,66.80
2023-02-13T16:30:33.393Z,66.10
2023-02-13T16:33:18.064Z,66.20
2023-02-13T16:35:52.265Z,67.10
2023-02-13T16:38:29.125Z,69.80
2023-02-13T16:41:00.884Z,67.30
2023-02-13T16:43:48.020Z,66.60
2023-02-13T16:46:29.204Z,67.40
2023-02-13T16:49:02.916Z,66.90
2023-02-13T16:51:37.704Z,66.80
2023-02-13T16:54:12.609Z,67.10
2023-02-13T16:56:52.422Z,67.00
2023-02-13T16:59:48.571Z,67.00
2023-02-13T17:02:28.753Z,68.00
2023-02-13T17:05:03.674Z,67.90
2023-02-13T17:07:35.849Z,67.40
2023-02-13T17:10:32.253Z,67.10
2023-02-13T17:13:18.726Z,67.20
2023-02-13T17:15:49.575Z,67.80
2023-02-13T17:18:18.437Z,67.50
2023-02-13T17:20:47.395Z,67.50
2023-02-13T17:23:19.698Z,67.50
2023-02-13T17:25:51.698Z,67.70
2023-02-13T17:28:22.322Z,67.80
2023-02-13T17:30:52.905Z,67.60
2023-02-13T17:33:31.791Z,67.90
2023-02-13T17:36:00.678Z,68.10
2023-02-13T17:38:29.560Z,67.90
2023-02-13T17:40:58.764Z,68.10
2023-02-13T17:43:29.043Z,68.20
2023-02-13T17:46:00.079Z,68.30
2023-02-13T17:48:29.947Z,68.60
2023-02-13T17:50:59.238Z,68.70
2023-02-13T17:53:33.258Z,68.80
2023-02-13T17:56:02.160Z,68.60
2023-02-13T17:58:30.991Z,68.80
2023-02-13T18:01:00.472Z,68.90
2023-02-13T18:03:29.850Z,69.70
2023-02-13T18:05:58.724Z,69.00
2023-02-13T18:08:27.645Z,69.30
2023-02-13T18:10:56.840Z,69.10
2023-02-13T18:13:25.966Z,69.30
2023-02-13T18:15:55.254Z,69.50
2023-02-13T18:18:24.168Z,69.70
2023-02-13T18:20:57.895Z,69.60
2023-02-13T18:23:26.509Z,69.60
2023-02-13T18:25:55.894Z,73.10
2023-02-13T18:28:25.071Z,70.40
2023-02-13T18:30:54.049Z,70.00
2023-02-13T18:33:22.952Z,70.00
2023-02-13T18:35:51.848Z,69.90
2023-02-13T18:38:20.731Z,69.90
2023-02-13T18:40:49.609Z,69.80
2023-02-13T18:43:18.852Z,69.80
2023-02-13T18:45:48.089Z,69.90
2023-02-13T18:48:16.946Z,70.00
2023-02-13T18:50:45.885Z,69.80
2023-02-13T18:53:14.831Z,69.70
2023-02-13T18:55:43.734Z,69.60
2023-02-13T18:58:12.675Z,69.80
2023-02-13T19:00:41.605Z,69.80
2023-02-13T19:03:10.470Z,69.60
2023-02-13T19:05:42.574Z,69.40
2023-02-13T19:08:11.460Z,69.40
2023-02-13T19:10:40.358Z,69.70
2023-02-13T19:13:09.198Z,69.80
2023-02-13T19:15:38.619Z,70.00
2023-02-13T19:18:08.760Z,70.00
2023-02-13T19:20:39.441Z,71.00
2023-02-13T19:23:08.439Z,70.50
2023-02-13T19:25:41.081Z,70.70
2023-02-13T19:28:10.040Z,70.90
2023-02-13T19:30:39.317Z,71.00
2023-02-13T19:33:08.193Z,71.30
2023-02-13T19:35:37.077Z,71.40
2023-02-13T19:38:06.015Z,71.50
2023-02-13T19:40:36.273Z,71.60
2023-02-13T19:43:05.219Z,71.30
2023-02-13T19:45:34.343Z,71.50
2023-02-13T19:48:03.246Z,71.50
2023-02-13T19:50:32.151Z,71.60
2023-02-13T19:53:00.975Z,71.60
2023-02-13T19:55:29.832Z,71.70
2023-02-13T19:57:58.860Z,71.50
2023-02-13T20:00:27.997Z,71.20
2023-02-13T20:03:05.456Z,71.50
2023-02-13T20:05:41.076Z,71.70
2023-02-13T20:08:09.985Z,71.70
2023-02-13T20:10:39.017Z,71.60
2023-02-13T20:13:07.864Z,72.50
2023-02-13T20:15:36.999Z,72.00
2023-02-13T20:18:06.113Z,71.90
2023-02-13T20:20:34.961Z,71.70
2023-02-13T20:23:03.864Z,71.80
2023-02-13T20:25:33.347Z,71.70
2023-02-13T20:28:02.291Z,71.70
2023-02-13T20:30:31.278Z,71.90
2023-02-13T20:33:00.263Z,72.10
2023-02-13T20:35:29.132Z,71.70
2023-02-13T20:38:00.004Z,71.80
2023-02-13T20:40:28.957Z,72.10
2023-02-13T20:42:57.954Z,72.20
2023-02-13T20:45:27.013Z,72.10
2023-02-13T20:47:55.993Z,72.20
2023-02-13T20:50:25.062Z,72.40
2023-02-13T20:52:54.057Z,72.30
2023-02-13T20:55:22.923Z,72.30
2023-02-13T20:57:51.792Z,72.50
2023-02-13T21:00:20.823Z,72.60
2023-02-13T21:02:49.739Z,72.50
2023-02-13T21:05:18.768Z,72.60
2023-02-13T21:07:48.059Z,72.70
2023-02-13T21:10:16.996Z,72.70
2023-02-13T21:12:45.886Z,73.10
2023-02-13T21:15:14.722Z,73.00
2023-02-13T21:17:43.567Z,72.90
2023-02-13T21:20:13.024Z,73.20
2023-02-13T21:22:41.904Z,73.40
2023-02-13T21:25:10.891Z,73.00
2023-02-13T21:27:39.787Z,72.80
2023-02-13T21:30:09.860Z,72.80
2023-02-13T21:32:40.578Z,72.90
2023-02-13T21:35:10.686Z,73.10
2023-02-13T21:37:39.710Z,73.20
2023-02-13T21:40:09.404Z,73.20
2023-02-13T21:42:38.277Z,73.20
2023-02-13T21:45:07.361Z,73.30
2023-02-13T21:47:36.227Z,73.40
2023-02-13T21:50:06.619Z,73.40
2023-02-13T21:52:36.928Z,73.60
2023-02-13T21:55:07.929Z,74.20
2023-02-13T21:57:37.986Z,74.30
2023-02-13T22:00:11.161Z,74.70
2023-02-13T22:02:40.764Z,75.10
2023-02-13T22:05:09.854Z,75.50
2023-02-13T22:07:58.512Z,75.50
2023-02-13T22:10:27.701Z,75.70
2023-02-13T22:12:56.689Z,75.90
2023-02-13T22:15:25.788Z,75.80
2023-02-13T22:17:54.696Z,76.00
2023-02-13T22:20:23.944Z,76.20
2023-02-13T22:22:53.200Z,76.10
2023-02-13T22:25:22.402Z,76.30
2023-02-13T22:27:51.369Z,76.20
2023-02-13T22:30:20.588Z,76.30
2023-02-13T22:32:49.562Z,76.40
2023-02-13T22:35:18.612Z,76.60
2023-02-13T22:37:47.496Z,76.50
2023-02-13T22:40:16.426Z,76.50
2023-02-13T22:42:45.363Z,76.60
2023-02-13T22:45:14.298Z,76.70
2023-02-13T22:47:43.261Z,76.80
2023-02-13T22:50:12.429Z,76.80
2023-02-13T22:52:41.296Z,76.70
2023-02-13T22:55:10.340Z,77.00
2023-02-13T22:57:39.222Z,77.30
2023-02-13T23:00:10.570Z,77.20
2023-02-13T23:02:39.469Z,77.10
2023-02-13T23:05:08.612Z,77.30
2023-02-13T23:07:37.795Z,77.50
2023-02-13T23:10:07.230Z,77.30
2023-02-13T23:12:40.056Z,77.60
2023-02-13T23:15:12.738Z,77.50
2023-02-13T23:18:00.178Z,77.80
2023-02-13T23:20:29.309Z,77.70
2023-02-13T23:22:58.505Z,78.00
2023-02-13T23:25:27.489Z,78.00
2023-02-13T23:27:57.920Z,77.90
2023-02-13T23:30:27.098Z,77.70
2023-02-13T23:32:56.502Z,78.30
2023-02-13T23:35:25.665Z,78.50
2023-02-13T23:37:55.344Z,78.50
2023-02-13T23:40:24.316Z,78.00
2023-02-13T23:42:53.248Z,78.20
2023-02-13T23:45:22.335Z,78.00
2023-02-13T23:47:51.179Z,78.00
2023-02-13T23:50:20.253Z,78.10
2023-02-13T23:52:49.182Z,78.70
2023-02-13T23:55:18.140Z,78.60
2023-02-13T23:57:47.274Z,78.60
